sensor_id;sensor_type;location;lat;lon;timestamp;temperature;humidity
22544;DHT22;11438;52.044;8.716;2023-05-10T00:00:16;20.90;92.10
22544;DHT22;11438;52.044;8.716;2023-05-10T00:02:41;20.90;92.20
22544;DHT22;11438;52.044;8.716;2023-05-10T00:05:07;20.80;92.10
22544;DHT22;11438;52.044;8.716;2023-05-10T00:07:33;20.80;92.20
22544;DHT22;11438;52.044;8.716;2023-05-10T00:09:58;20.80;92.20
22544;DHT22;11438;52.044;8.716;2023-05-10T00:12:24;20.80;92.30
22544;DHT22;11438;52.044;8.716;2023-05-10T00:14:49;20.70;92.30
22544;DHT22;11438;52.044;8.716;2023-05-10T00:17:15;20.70;92.50
22544;DHT22;11438;52.044;8.716;2023-05-10T00:19:40;20.70;92.50
22544;DHT22;11438;52.044;8.716;2023-05-10T00:22:06;20.70;92.50
22544;DHT22;11438;52.044;8.716;2023-05-10T00:24:31;20.70;92.50
22544;DHT22;11438;52.044;8.716;2023-05-10T00:26:57;20.70;92.70
22544;DHT22;11438;52.044;8.716;2023-05-10T00:29:22;20.70;92.90
22544;DHT22;11438;52.044;8.716;2023-05-10T00:31:48;20.70;92.90
22544;DHT22;11438;52.044;8.716;2023-05-10T00:34:13;20.60;92.90
22544;DHT22;11438;52.044;8.716;2023-05-10T00:36:39;20.60;92.90
22544;DHT22;11438;52.044;8.716;2023-05-10T00:39:04;20.60;92.90
22544;DHT22;11438;52.044;8.716;2023-05-10T00:41:30;20.60;93.00
22544;DHT22;11438;52.044;8.716;2023-05-10T00:43:58;20.60;93.10
22544;DHT22;11438;52.044;8.716;2023-05-10T00:46:24;20.60;93.00
22544;DHT22;11438;52.044;8.716;2023-05-10T00:48:51;20.60;93.20
22544;DHT22;11438;52.044;8.716;2023-05-10T00:51:17;20.50;93.20
22544;DHT22;11438;52.044;8.716;2023-05-10T00:53:44;20.50;93.20
22544;DHT22;11438;52.044;8.716;2023-05-10T00:56:10;20.50;93.20
22544;DHT22;11438;52.044;8.716;2023-05-10T00:58:36;20.50;93.30
22544;DHT22;11438;52.044;8.716;2023-05-10T01:01:02;20.50;93.30
22544;DHT22;11438;52.044;8.716;2023-05-10T01:03:28;20.50;93.50
22544;DHT22;11438;52.044;8.716;2023-05-10T01:05:54;20.40;93.40
22544;DHT22;11438;52.044;8.716;2023-05-10T01:08:20;20.40;93.50
22544;DHT22;11438;52.044;8.716;2023-05-10T01:10:46;20.40;93.60
22544;DHT22;11438;52.044;8.716;2023-05-10T01:15:52;20.40;93.70
22544;DHT22;11438;52.044;8.716;2023-05-10T01:18:19;20.40;93.70
22544;DHT22;11438;52.044;8.716;2023-05-10T01:20:48;20.40;93.90
22544;DHT22;11438;52.044;8.716;2023-05-10T01:37:42;20.30;94.00
22544;DHT22;11438;52.044;8.716;2023-05-10T01:43:02;20.30;94.10
22544;DHT22;11438;52.044;8.716;2023-05-10T01:45:41;20.30;94.30
22544;DHT22;11438;52.044;8.716;2023-05-10T01:48:11;20.30;94.40
22544;DHT22;11438;52.044;8.716;2023-05-10T01:50:41;20.20;94.20
22544;DHT22;11438;52.044;8.716;2023-05-10T01:53:09;20.20;94.20
22544;DHT22;11438;52.044;8.716;2023-05-10T01:55:45;20.20;94.30
22544;DHT22;11438;52.044;8.716;2023-05-10T01:58:28;20.20;94.40
22544;DHT22;11438;52.044;8.716;2023-05-10T02:00:55;20.10;94.50
22544;DHT22;11438;52.044;8.716;2023-05-10T02:03:24;20.10;94.50
22544;DHT22;11438;52.044;8.716;2023-05-10T02:05:52;20.10;94.60
22544;DHT22;11438;52.044;8.716;2023-05-10T02:08:19;20.10;94.60
22544;DHT22;11438;52.044;8.716;2023-05-10T02:10:46;20.10;94.70
22544;DHT22;11438;52.044;8.716;2023-05-10T02:13:16;20.10;95.00
22544;DHT22;11438;52.044;8.716;2023-05-10T02:15:42;20.10;94.90
22544;DHT22;11438;52.044;8.716;2023-05-10T02:18:10;20.00;94.90
22544;DHT22;11438;52.044;8.716;2023-05-10T02:20:37;20.00;95.00
22544;DHT22;11438;52.044;8.716;2023-05-10T02:23:03;20.00;94.90
22544;DHT22;11438;52.044;8.716;2023-05-10T02:25:30;20.00;95.00
22544;DHT22;11438;52.044;8.716;2023-05-10T02:27:57;20.00;95.20
22544;DHT22;11438;52.044;8.716;2023-05-10T02:30:23;20.00;95.30
22544;DHT22;11438;52.044;8.716;2023-05-10T02:32:50;20.00;95.40
22544;DHT22;11438;52.044;8.716;2023-05-10T02:35:17;20.00;95.50
22544;DHT22;11438;52.044;8.716;2023-05-10T02:37:43;20.00;95.40
22544;DHT22;11438;52.044;8.716;2023-05-10T02:40:10;20.00;95.40
22544;DHT22;11438;52.044;8.716;2023-05-10T02:42:37;20.00;95.50
22544;DHT22;11438;52.044;8.716;2023-05-10T02:45:08;20.00;95.40
22544;DHT22;11438;52.044;8.716;2023-05-10T02:47:35;19.90;95.50
22544;DHT22;11438;52.044;8.716;2023-05-10T02:50:01;19.90;95.40
22544;DHT22;11438;52.044;8.716;2023-05-10T02:52:29;19.90;95.40
22544;DHT22;11438;52.044;8.716;2023-05-10T02:55:00;19.90;95.50
22544;DHT22;11438;52.044;8.716;2023-05-10T02:57:33;19.80;95.50
22544;DHT22;11438;52.044;8.716;2023-05-10T03:00:00;19.80;95.40
22544;DHT22;11438;52.044;8.716;2023-05-10T03:02:26;19.80;95.40
22544;DHT22;11438;52.044;8.716;2023-05-10T03:04:52;19.70;95.30
22544;DHT22;11438;52.044;8.716;2023-05-10T03:07:18;19.70;95.30
22544;DHT22;11438;52.044;8.716;2023-05-10T03:09:47;19.70;95.40
22544;DHT22;11438;52.044;8.716;2023-05-10T03:12:18;19.70;95.40
22544;DHT22;11438;52.044;8.716;2023-05-10T03:20:48;19.60;95.50
22544;DHT22;11438;52.044;8.716;2023-05-10T03:23:27;19.60;95.50
22544;DHT22;11438;52.044;8.716;2023-05-10T03:25:55;19.60;95.50
22544;DHT22;11438;52.044;8.716;2023-05-10T03:28:21;19.60;96.00
22544;DHT22;11438;52.044;8.716;2023-05-10T03:30:49;19.60;95.70
22544;DHT22;11438;52.044;8.716;2023-05-10T03:33:15;19.60;95.70
22544;DHT22;11438;52.044;8.716;2023-05-10T03:35:40;19.60;95.70
22544;DHT22;11438;52.044;8.716;2023-05-10T03:38:06;19.60;95.70
22544;DHT22;11438;52.044;8.716;2023-05-10T03:40:31;19.50;95.70
22544;DHT22;11438;52.044;8.716;2023-05-10T03:42:58;19.60;95.80
22544;DHT22;11438;52.044;8.716;2023-05-10T03:45:24;19.50;95.80
22544;DHT22;11438;52.044;8.716;2023-05-10T03:47:49;19.50;95.80
22544;DHT22;11438;52.044;8.716;2023-05-10T03:50:15;19.50;95.90
22544;DHT22;11438;52.044;8.716;2023-05-10T03:52:40;19.50;95.90
22544;DHT22;11438;52.044;8.716;2023-05-10T03:55:06;19.50;95.90
22544;DHT22;11438;52.044;8.716;2023-05-10T03:57:32;19.50;95.90
22544;DHT22;11438;52.044;8.716;2023-05-10T03:59:57;19.50;95.90
22544;DHT22;11438;52.044;8.716;2023-05-10T04:02:23;19.50;96.00
22544;DHT22;11438;52.044;8.716;2023-05-10T04:04:48;19.50;95.90
22544;DHT22;11438;52.044;8.716;2023-05-10T04:07:14;19.50;95.90
22544;DHT22;11438;52.044;8.716;2023-05-10T04:09:40;19.50;96.00
22544;DHT22;11438;52.044;8.716;2023-05-10T04:12:06;19.40;96.10
22544;DHT22;11438;52.044;8.716;2023-05-10T04:14:31;19.40;96.30
22544;DHT22;11438;52.044;8.716;2023-05-10T04:16:57;19.40;96.10
22544;DHT22;11438;52.044;8.716;2023-05-10T04:19:22;19.40;96.20
22544;DHT22;11438;52.044;8.716;2023-05-10T04:21:48;19.40;96.20
22544;DHT22;11438;52.044;8.716;2023-05-10T04:24:14;19.30;96.30
22544;DHT22;11438;52.044;8.716;2023-05-10T04:26:40;19.30;96.30
22544;DHT22;11438;52.044;8.716;2023-05-10T04:29:05;19.30;96.40
22544;DHT22;11438;52.044;8.716;2023-05-10T04:31:31;19.30;96.40
22544;DHT22;11438;52.044;8.716;2023-05-10T04:33:56;19.20;96.50
22544;DHT22;11438;52.044;8.716;2023-05-10T04:36:22;19.20;96.50
22544;DHT22;11438;52.044;8.716;2023-05-10T04:38:47;19.20;96.60
22544;DHT22;11438;52.044;8.716;2023-05-10T04:41:13;19.20;96.60
22544;DHT22;11438;52.044;8.716;2023-05-10T04:43:38;19.20;96.90
22544;DHT22;11438;52.044;8.716;2023-05-10T04:46:05;19.10;96.80
22544;DHT22;11438;52.044;8.716;2023-05-10T04:48:31;19.10;96.80
22544;DHT22;11438;52.044;8.716;2023-05-10T04:50:56;19.10;96.80
22544;DHT22;11438;52.044;8.716;2023-05-10T04:53:22;19.00;96.70
22544;DHT22;11438;52.044;8.716;2023-05-10T04:55:47;19.00;96.60
22544;DHT22;11438;52.044;8.716;2023-05-10T04:58:13;18.90;96.60
22544;DHT22;11438;52.044;8.716;2023-05-10T05:00:39;18.90;96.50
22544;DHT22;11438;52.044;8.716;2023-05-10T05:03:05;18.80;96.50
22544;DHT22;11438;52.044;8.716;2023-05-10T05:05:31;18.80;96.60
22544;DHT22;11438;52.044;8.716;2023-05-10T05:07:56;18.70;96.70
22544;DHT22;11438;52.044;8.716;2023-05-10T05:10:22;18.70;96.90
22544;DHT22;11438;52.044;8.716;2023-05-10T05:12:47;18.70;96.80
22544;DHT22;11438;52.044;8.716;2023-05-10T05:15:13;18.60;96.90
22544;DHT22;11438;52.044;8.716;2023-05-10T05:17:40;18.60;97.00
22544;DHT22;11438;52.044;8.716;2023-05-10T05:20:06;18.50;97.00
22544;DHT22;11438;52.044;8.716;2023-05-10T05:22:31;18.50;97.10
22544;DHT22;11438;52.044;8.716;2023-05-10T05:24:57;18.50;97.20
22544;DHT22;11438;52.044;8.716;2023-05-10T05:27:27;18.50;97.20
22544;DHT22;11438;52.044;8.716;2023-05-10T05:29:53;18.50;97.20
22544;DHT22;11438;52.044;8.716;2023-05-10T05:32:19;18.50;97.20
22544;DHT22;11438;52.044;8.716;2023-05-10T05:34:45;18.50;97.30
22544;DHT22;11438;52.044;8.716;2023-05-10T05:37:15;18.50;97.30
22544;DHT22;11438;52.044;8.716;2023-05-10T05:39:40;18.50;97.40
22544;DHT22;11438;52.044;8.716;2023-05-10T05:42:06;18.50;97.40
22544;DHT22;11438;52.044;8.716;2023-05-10T05:44:31;18.50;97.40
22544;DHT22;11438;52.044;8.716;2023-05-10T05:46:57;18.50;97.40
22544;DHT22;11438;52.044;8.716;2023-05-10T05:49:23;18.50;97.50
22544;DHT22;11438;52.044;8.716;2023-05-10T05:51:48;18.50;97.40
22544;DHT22;11438;52.044;8.716;2023-05-10T05:54:15;18.50;97.40
22544;DHT22;11438;52.044;8.716;2023-05-10T05:56:41;18.50;97.40
22544;DHT22;11438;52.044;8.716;2023-05-10T05:59:06;18.50;97.50
22544;DHT22;11438;52.044;8.716;2023-05-10T06:01:32;18.50;97.50
22544;DHT22;11438;52.044;8.716;2023-05-10T06:03:57;18.50;97.40
22544;DHT22;11438;52.044;8.716;2023-05-10T06:06:23;18.50;97.40
22544;DHT22;11438;52.044;8.716;2023-05-10T06:08:48;18.50;97.50
22544;DHT22;11438;52.044;8.716;2023-05-10T06:11:14;18.50;97.50
22544;DHT22;11438;52.044;8.716;2023-05-10T06:13:39;18.60;97.60
22544;DHT22;11438;52.044;8.716;2023-05-10T06:16:05;18.60;97.60
22544;DHT22;11438;52.044;8.716;2023-05-10T06:18:31;18.60;97.50
22544;DHT22;11438;52.044;8.716;2023-05-10T06:20:56;18.60;97.60
22544;DHT22;11438;52.044;8.716;2023-05-10T06:23:22;18.60;97.60
22544;DHT22;11438;52.044;8.716;2023-05-10T06:25:48;18.50;97.50
22544;DHT22;11438;52.044;8.716;2023-05-10T06:28:13;18.60;97.50
22544;DHT22;11438;52.044;8.716;2023-05-10T06:30:39;18.60;97.60
22544;DHT22;11438;52.044;8.716;2023-05-10T06:33:04;18.60;97.50
22544;DHT22;11438;52.044;8.716;2023-05-10T06:35:30;18.60;97.60
22544;DHT22;11438;52.044;8.716;2023-05-10T06:37:57;18.60;97.40
22544;DHT22;11438;52.044;8.716;2023-05-10T06:40:22;18.60;97.30
22544;DHT22;11438;52.044;8.716;2023-05-10T06:42:48;18.60;97.40
22544;DHT22;11438;52.044;8.716;2023-05-10T06:45:14;18.60;97.40
22544;DHT22;11438;52.044;8.716;2023-05-10T06:47:40;18.60;97.40
22544;DHT22;11438;52.044;8.716;2023-05-10T06:50:10;18.60;97.50
22544;DHT22;11438;52.044;8.716;2023-05-10T06:52:36;18.60;97.50
22544;DHT22;11438;52.044;8.716;2023-05-10T06:55:03;18.70;97.60
22544;DHT22;11438;52.044;8.716;2023-05-10T06:57:29;18.70;97.50
22544;DHT22;11438;52.044;8.716;2023-05-10T06:59:55;18.70;97.50
22544;DHT22;11438;52.044;8.716;2023-05-10T07:02:21;18.70;97.50
22544;DHT22;11438;52.044;8.716;2023-05-10T07:04:48;18.70;97.40
22544;DHT22;11438;52.044;8.716;2023-05-10T07:07:14;18.70;97.50
22544;DHT22;11438;52.044;8.716;2023-05-10T07:09:39;18.70;97.40
22544;DHT22;11438;52.044;8.716;2023-05-10T07:12:05;18.70;97.40
22544;DHT22;11438;52.044;8.716;2023-05-10T07:14:31;18.70;97.40
22544;DHT22;11438;52.044;8.716;2023-05-10T07:16:56;18.80;97.40
22544;DHT22;11438;52.044;8.716;2023-05-10T07:19:22;18.80;97.40
22544;DHT22;11438;52.044;8.716;2023-05-10T07:21:47;18.80;97.40
22544;DHT22;11438;52.044;8.716;2023-05-10T07:24:13;18.80;97.50
22544;DHT22;11438;52.044;8.716;2023-05-10T07:26:38;18.80;97.30
22544;DHT22;11438;52.044;8.716;2023-05-10T07:29:04;18.90;97.40
22544;DHT22;11438;52.044;8.716;2023-05-10T07:31:29;18.90;97.40
22544;DHT22;11438;52.044;8.716;2023-05-10T07:33:55;18.90;97.50
22544;DHT22;11438;52.044;8.716;2023-05-10T07:36:20;18.90;97.50
22544;DHT22;11438;52.044;8.716;2023-05-10T07:38:46;19.00;97.40
22544;DHT22;11438;52.044;8.716;2023-05-10T07:41:12;19.00;97.50
22544;DHT22;11438;52.044;8.716;2023-05-10T07:43:37;19.10;97.40
22544;DHT22;11438;52.044;8.716;2023-05-10T07:46:03;19.10;97.40
22544;DHT22;11438;52.044;8.716;2023-05-10T07:48:29;19.30;97.40
22544;DHT22;11438;52.044;8.716;2023-05-10T07:50:54;19.30;97.50
22544;DHT22;11438;52.044;8.716;2023-05-10T07:53:20;19.40;97.20
22544;DHT22;11438;52.044;8.716;2023-05-10T07:55:50;19.40;97.20
22544;DHT22;11438;52.044;8.716;2023-05-10T07:58:17;19.40;97.00
22544;DHT22;11438;52.044;8.716;2023-05-10T08:00:42;19.50;97.00
22544;DHT22;11438;52.044;8.716;2023-05-10T08:03:08;19.50;96.90
22544;DHT22;11438;52.044;8.716;2023-05-10T08:05:33;19.50;96.90
22544;DHT22;11438;52.044;8.716;2023-05-10T08:07:59;19.50;96.90
22544;DHT22;11438;52.044;8.716;2023-05-10T08:10:24;19.50;96.90
22544;DHT22;11438;52.044;8.716;2023-05-10T08:12:50;19.60;96.70
22544;DHT22;11438;52.044;8.716;2023-05-10T08:15:16;19.60;96.60
22544;DHT22;11438;52.044;8.716;2023-05-10T08:17:42;19.60;96.60
22544;DHT22;11438;52.044;8.716;2023-05-10T08:20:08;19.60;96.70
22544;DHT22;11438;52.044;8.716;2023-05-10T08:22:34;19.60;96.60
22544;DHT22;11438;52.044;8.716;2023-05-10T08:24:59;19.60;96.60
22544;DHT22;11438;52.044;8.716;2023-05-10T08:27:25;19.70;96.50
22544;DHT22;11438;52.044;8.716;2023-05-10T08:29:50;19.60;96.50
22544;DHT22;11438;52.044;8.716;2023-05-10T08:32:16;19.60;96.40
22544;DHT22;11438;52.044;8.716;2023-05-10T08:34:42;19.60;96.50
22544;DHT22;11438;52.044;8.716;2023-05-10T08:37:07;19.60;96.50
22544;DHT22;11438;52.044;8.716;2023-05-10T08:39:36;19.60;96.60
22544;DHT22;11438;52.044;8.716;2023-05-10T08:42:04;19.60;96.80
22544;DHT22;11438;52.044;8.716;2023-05-10T08:44:32;19.60;96.80
22544;DHT22;11438;52.044;8.716;2023-05-10T08:46:59;19.70;96.80
22544;DHT22;11438;52.044;8.716;2023-05-10T08:49:27;19.70;96.90
22544;DHT22;11438;52.044;8.716;2023-05-10T08:51:56;19.80;96.90
22544;DHT22;11438;52.044;8.716;2023-05-10T08:54:24;19.80;97.00
22544;DHT22;11438;52.044;8.716;2023-05-10T08:56:50;19.90;96.90
22544;DHT22;11438;52.044;8.716;2023-05-10T08:59:15;19.90;96.80
22544;DHT22;11438;52.044;8.716;2023-05-10T09:01:43;20.00;96.70
22544;DHT22;11438;52.044;8.716;2023-05-10T09:04:09;20.00;96.90
22544;DHT22;11438;52.044;8.716;2023-05-10T09:06:35;20.10;96.90
22544;DHT22;11438;52.044;8.716;2023-05-10T09:09:01;20.10;96.80
22544;DHT22;11438;52.044;8.716;2023-05-10T09:11:28;20.20;96.90
22544;DHT22;11438;52.044;8.716;2023-05-10T09:13:55;20.30;96.60
22544;DHT22;11438;52.044;8.716;2023-05-10T09:16:21;20.40;96.50
22544;DHT22;11438;52.044;8.716;2023-05-10T09:18:47;20.50;96.20
22544;DHT22;11438;52.044;8.716;2023-05-10T09:21:13;20.50;95.90
22544;DHT22;11438;52.044;8.716;2023-05-10T09:23:43;20.60;95.90
22544;DHT22;11438;52.044;8.716;2023-05-10T09:26:08;20.60;95.80
22544;DHT22;11438;52.044;8.716;2023-05-10T09:28:53;20.60;95.50
22544;DHT22;11438;52.044;8.716;2023-05-10T09:31:19;20.60;95.40
22544;DHT22;11438;52.044;8.716;2023-05-10T09:33:46;20.60;95.40
22544;DHT22;11438;52.044;8.716;2023-05-10T09:36:12;20.60;95.50
22544;DHT22;11438;52.044;8.716;2023-05-10T09:38:48;20.50;95.30
22544;DHT22;11438;52.044;8.716;2023-05-10T09:41:22;20.40;95.40
22544;DHT22;11438;52.044;8.716;2023-05-10T09:43:48;20.40;95.50
22544;DHT22;11438;52.044;8.716;2023-05-10T09:46:15;20.30;95.50
22544;DHT22;11438;52.044;8.716;2023-05-10T09:48:45;20.30;95.80
22544;DHT22;11438;52.044;8.716;2023-05-10T09:51:22;20.20;96.10
22544;DHT22;11438;52.044;8.716;2023-05-10T09:53:48;20.10;96.20
22544;DHT22;11438;52.044;8.716;2023-05-10T09:56:33;20.10;96.50
22544;DHT22;11438;52.044;8.716;2023-05-10T09:59:03;20.10;96.80
22544;DHT22;11438;52.044;8.716;2023-05-10T10:01:29;20.10;96.90
22544;DHT22;11438;52.044;8.716;2023-05-10T10:03:54;20.00;97.10
22544;DHT22;11438;52.044;8.716;2023-05-10T10:06:23;20.10;97.40
22544;DHT22;11438;52.044;8.716;2023-05-10T10:08:48;20.10;97.50
22544;DHT22;11438;52.044;8.716;2023-05-10T10:11:14;20.20;97.70
22544;DHT22;11438;52.044;8.716;2023-05-10T10:13:40;20.30;98.10
22544;DHT22;11438;52.044;8.716;2023-05-10T10:16:06;20.40;98.10
22544;DHT22;11438;52.044;8.716;2023-05-10T10:18:33;20.50;98.10
22544;DHT22;11438;52.044;8.716;2023-05-10T10:20:59;20.60;97.50
22544;DHT22;11438;52.044;8.716;2023-05-10T10:23:25;20.70;97.50
22544;DHT22;11438;52.044;8.716;2023-05-10T10:25:52;20.80;97.10
22544;DHT22;11438;52.044;8.716;2023-05-10T10:28:48;20.80;97.10
22544;DHT22;11438;52.044;8.716;2023-05-10T10:31:23;20.90;97.30
22544;DHT22;11438;52.044;8.716;2023-05-10T10:34:00;21.10;97.30
22544;DHT22;11438;52.044;8.716;2023-05-10T10:36:26;21.10;97.40
22544;DHT22;11438;52.044;8.716;2023-05-10T10:39:00;21.20;97.40
22544;DHT22;11438;52.044;8.716;2023-05-10T10:41:33;21.30;97.20
22544;DHT22;11438;52.044;8.716;2023-05-10T10:52:23;21.70;95.10
22544;DHT22;11438;52.044;8.716;2023-05-10T10:55:17;21.80;94.90
22544;DHT22;11438;52.044;8.716;2023-05-10T10:57:51;21.80;94.30
22544;DHT22;11438;52.044;8.716;2023-05-10T11:00:29;21.90;94.50
22544;DHT22;11438;52.044;8.716;2023-05-10T11:03:06;21.90;94.50
22544;DHT22;11438;52.044;8.716;2023-05-10T11:08:27;21.90;94.80
22544;DHT22;11438;52.044;8.716;2023-05-10T11:11:04;21.90;95.00
22544;DHT22;11438;52.044;8.716;2023-05-10T11:13:39;21.90;94.50
22544;DHT22;11438;52.044;8.716;2023-05-10T11:16:20;22.00;94.30
22544;DHT22;11438;52.044;8.716;2023-05-10T11:18:59;22.00;94.30
22544;DHT22;11438;52.044;8.716;2023-05-10T11:21:26;22.00;93.90
22544;DHT22;11438;52.044;8.716;2023-05-10T11:23:56;21.90;93.80
22544;DHT22;11438;52.044;8.716;2023-05-10T11:26:33;21.90;93.90
22544;DHT22;11438;52.044;8.716;2023-05-10T11:28:59;21.90;93.90
22544;DHT22;11438;52.044;8.716;2023-05-10T11:31:27;21.90;94.00
22544;DHT22;11438;52.044;8.716;2023-05-10T11:33:55;21.90;94.20
22544;DHT22;11438;52.044;8.716;2023-05-10T11:36:26;22.00;93.50
22544;DHT22;11438;52.044;8.716;2023-05-10T11:38:52;22.00;94.00
22544;DHT22;11438;52.044;8.716;2023-05-10T11:41:19;22.00;94.20
22544;DHT22;11438;52.044;8.716;2023-05-10T11:43:53;22.00;93.90
22544;DHT22;11438;52.044;8.716;2023-05-10T11:46:20;22.00;93.80
22544;DHT22;11438;52.044;8.716;2023-05-10T11:48:51;22.00;94.00
22544;DHT22;11438;52.044;8.716;2023-05-10T11:51:21;21.90;93.60
22544;DHT22;11438;52.044;8.716;2023-05-10T11:53:48;21.90;93.50
22544;DHT22;11438;52.044;8.716;2023-05-10T11:56:14;21.90;93.90
22544;DHT22;11438;52.044;8.716;2023-05-10T11:58:40;21.90;93.80
22544;DHT22;11438;52.044;8.716;2023-05-10T12:01:07;21.90;93.60
22544;DHT22;11438;52.044;8.716;2023-05-10T12:03:33;21.90;93.30
22544;DHT22;11438;52.044;8.716;2023-05-10T12:06:01;22.00;92.30
22544;DHT22;11438;52.044;8.716;2023-05-10T12:08:28;22.00;93.20
22544;DHT22;11438;52.044;8.716;2023-05-10T12:11:08;22.10;92.90
22544;DHT22;11438;52.044;8.716;2023-05-10T12:13:39;22.10;92.60
22544;DHT22;11438;52.044;8.716;2023-05-10T12:16:25;22.10;92.80
22544;DHT22;11438;52.044;8.716;2023-05-10T12:18:56;22.20;92.60
22544;DHT22;11438;52.044;8.716;2023-05-10T12:21:21;22.30;92.00
22544;DHT22;11438;52.044;8.716;2023-05-10T12:23:49;22.40;92.60
22544;DHT22;11438;52.044;8.716;2023-05-10T12:26:15;22.50;91.60
22544;DHT22;11438;52.044;8.716;2023-05-10T12:28:41;22.50;91.90
22544;DHT22;11438;52.044;8.716;2023-05-10T12:31:07;22.60;91.30
22544;DHT22;11438;52.044;8.716;2023-05-10T12:33:43;22.60;90.60
22544;DHT22;11438;52.044;8.716;2023-05-10T12:36:10;22.60;90.50
22544;DHT22;11438;52.044;8.716;2023-05-10T12:38:37;22.60;90.20
22544;DHT22;11438;52.044;8.716;2023-05-10T12:41:09;22.60;90.30
22544;DHT22;11438;52.044;8.716;2023-05-10T12:43:35;22.50;90.20
22544;DHT22;11438;52.044;8.716;2023-05-10T12:46:12;22.50;91.20
22544;DHT22;11438;52.044;8.716;2023-05-10T12:48:39;22.40;91.50
22544;DHT22;11438;52.044;8.716;2023-05-10T12:51:05;22.40;91.80
22544;DHT22;11438;52.044;8.716;2023-05-10T12:53:34;22.30;91.70
22544;DHT22;11438;52.044;8.716;2023-05-10T12:56:00;22.30;91.90
22544;DHT22;11438;52.044;8.716;2023-05-10T12:58:25;22.20;92.10
22544;DHT22;11438;52.044;8.716;2023-05-10T13:00:51;22.20;92.40
22544;DHT22;11438;52.044;8.716;2023-05-10T13:03:17;22.20;92.30
22544;DHT22;11438;52.044;8.716;2023-05-10T13:05:42;22.20;91.90
22544;DHT22;11438;52.044;8.716;2023-05-10T13:08:08;22.30;92.00
22544;DHT22;11438;52.044;8.716;2023-05-10T13:10:34;22.30;92.60
22544;DHT22;11438;52.044;8.716;2023-05-10T13:12:59;22.40;92.10
22544;DHT22;11438;52.044;8.716;2023-05-10T13:15:25;22.50;92.20
22544;DHT22;11438;52.044;8.716;2023-05-10T13:17:51;22.50;91.90
22544;DHT22;11438;52.044;8.716;2023-05-10T13:20:17;22.70;91.90
22544;DHT22;11438;52.044;8.716;2023-05-10T13:22:43;22.70;91.80
22544;DHT22;11438;52.044;8.716;2023-05-10T13:25:09;22.80;92.10
22544;DHT22;11438;52.044;8.716;2023-05-10T13:27:35;22.90;92.40
22544;DHT22;11438;52.044;8.716;2023-05-10T13:30:02;23.00;92.30
22544;DHT22;11438;52.044;8.716;2023-05-10T13:32:28;23.10;92.20
22544;DHT22;11438;52.044;8.716;2023-05-10T13:34:55;23.20;92.50
22544;DHT22;11438;52.044;8.716;2023-05-10T13:37:20;23.20;92.40
22544;DHT22;11438;52.044;8.716;2023-05-10T13:39:46;23.40;92.30
22544;DHT22;11438;52.044;8.716;2023-05-10T13:42:12;23.40;92.20
22544;DHT22;11438;52.044;8.716;2023-05-10T13:44:37;23.50;92.10
22544;DHT22;11438;52.044;8.716;2023-05-10T13:47:04;23.60;91.80
22544;DHT22;11438;52.044;8.716;2023-05-10T13:49:29;23.70;91.50
22544;DHT22;11438;52.044;8.716;2023-05-10T13:51:55;23.70;91.20
22544;DHT22;11438;52.044;8.716;2023-05-10T13:54:20;23.70;91.00
22544;DHT22;11438;52.044;8.716;2023-05-10T13:56:47;23.70;91.50
22544;DHT22;11438;52.044;8.716;2023-05-10T13:59:13;23.70;91.10
22544;DHT22;11438;52.044;8.716;2023-05-10T14:01:42;23.80;91.10
22544;DHT22;11438;52.044;8.716;2023-05-10T14:04:11;23.80;90.40
22544;DHT22;11438;52.044;8.716;2023-05-10T14:06:37;23.70;89.60
22544;DHT22;11438;52.044;8.716;2023-05-10T14:09:03;23.60;88.10
22544;DHT22;11438;52.044;8.716;2023-05-10T14:11:28;23.60;87.20
22544;DHT22;11438;52.044;8.716;2023-05-10T14:13:54;23.40;87.20
22544;DHT22;11438;52.044;8.716;2023-05-10T14:16:20;23.20;87.20
22544;DHT22;11438;52.044;8.716;2023-05-10T14:18:45;23.10;87.50
22544;DHT22;11438;52.044;8.716;2023-05-10T14:21:11;23.00;88.50
22544;DHT22;11438;52.044;8.716;2023-05-10T14:23:37;22.80;88.90
22544;DHT22;11438;52.044;8.716;2023-05-10T14:26:02;22.70;89.60
22544;DHT22;11438;52.044;8.716;2023-05-10T14:28:28;22.60;90.00
22544;DHT22;11438;52.044;8.716;2023-05-10T14:30:53;22.50;90.20
22544;DHT22;11438;52.044;8.716;2023-05-10T14:33:19;22.40;90.30
22544;DHT22;11438;52.044;8.716;2023-05-10T14:35:46;22.30;90.50
22544;DHT22;11438;52.044;8.716;2023-05-10T14:38:12;22.20;90.50
22544;DHT22;11438;52.044;8.716;2023-05-10T14:40:37;22.10;90.80
22544;DHT22;11438;52.044;8.716;2023-05-10T14:43:03;22.10;90.80
22544;DHT22;11438;52.044;8.716;2023-05-10T14:45:28;22.00;90.40
22544;DHT22;11438;52.044;8.716;2023-05-10T14:47:54;21.90;90.50
22544;DHT22;11438;52.044;8.716;2023-05-10T14:50:19;21.90;90.70
22544;DHT22;11438;52.044;8.716;2023-05-10T14:52:45;21.80;90.90
22544;DHT22;11438;52.044;8.716;2023-05-10T14:55:10;21.80;90.90
22544;DHT22;11438;52.044;8.716;2023-05-10T14:57:36;21.80;91.00
22544;DHT22;11438;52.044;8.716;2023-05-10T15:00:02;21.80;90.90
22544;DHT22;11438;52.044;8.716;2023-05-10T15:02:29;21.70;90.80
22544;DHT22;11438;52.044;8.716;2023-05-10T15:04:54;21.80;90.90
22544;DHT22;11438;52.044;8.716;2023-05-10T15:07:20;21.70;91.20
22544;DHT22;11438;52.044;8.716;2023-05-10T15:09:45;21.70;91.10
22544;DHT22;11438;52.044;8.716;2023-05-10T15:12:11;21.80;91.30
22544;DHT22;11438;52.044;8.716;2023-05-10T15:14:36;21.70;91.40
22544;DHT22;11438;52.044;8.716;2023-05-10T15:17:02;21.80;91.60
22544;DHT22;11438;52.044;8.716;2023-05-10T15:19:28;21.80;91.70
22544;DHT22;11438;52.044;8.716;2023-05-10T15:21:54;21.90;91.80
22544;DHT22;11438;52.044;8.716;2023-05-10T15:24:21;21.90;91.80
22544;DHT22;11438;52.044;8.716;2023-05-10T15:26:47;21.90;91.80
22544;DHT22;11438;52.044;8.716;2023-05-10T15:29:12;22.00;91.90
22544;DHT22;11438;52.044;8.716;2023-05-10T15:31:48;22.10;91.80
22544;DHT22;11438;52.044;8.716;2023-05-10T15:34:14;22.10;91.80
22544;DHT22;11438;52.044;8.716;2023-05-10T15:36:39;22.20;91.90
22544;DHT22;11438;52.044;8.716;2023-05-10T15:39:05;22.20;92.00
22544;DHT22;11438;52.044;8.716;2023-05-10T15:41:30;22.30;91.80
22544;DHT22;11438;52.044;8.716;2023-05-10T15:43:57;22.40;91.70
22544;DHT22;11438;52.044;8.716;2023-05-10T15:46:25;22.40;91.80
22544;DHT22;11438;52.044;8.716;2023-05-10T15:48:50;22.40;91.80
22544;DHT22;11438;52.044;8.716;2023-05-10T15:51:16;22.50;91.60
22544;DHT22;11438;52.044;8.716;2023-05-10T15:53:41;22.50;91.60
22544;DHT22;11438;52.044;8.716;2023-05-10T15:56:07;22.60;91.50
22544;DHT22;11438;52.044;8.716;2023-05-10T15:58:32;22.70;91.40
22544;DHT22;11438;52.044;8.716;2023-05-10T16:00:58;22.60;91.20
22544;DHT22;11438;52.044;8.716;2023-05-10T16:03:23;22.70;91.30
22544;DHT22;11438;52.044;8.716;2023-05-10T16:05:49;22.70;91.40